sensor_id;sensor_type;location;lat;lon;timestamp;temperature;humidity
48264;DHT22;34086;51.076;13.722;2024-03-23T00:53:02;9.50;99.90
48264;DHT22;34086;51.076;13.722;2024-03-23T00:54:03;9.40;99.90
48264;DHT22;34086;51.076;13.722;2024-03-23T00:55:03;9.40;99.90
48264;DHT22;34086;51.076;13.722;2024-03-23T00:56:04;9.40;99.90
48264;DHT22;34086;51.076;13.722;2024-03-23T00:57:05;9.40;99.90
48264;DHT22;34086;51.076;13.722;2024-03-23T00:58:05;9.40;99.90
48264;DHT22;34086;51.076;13.722;2024-03-23T00:59:06;9.40;99.90
48264;DHT22;34086;51.076;13.722;2024-03-23T01:00:06;9.50;99.90
48264;DHT22;34086;51.076;13.722;2024-03-23T01:01:07;9.50;99.90
48264;DHT22;34086;51.076;13.722;2024-03-23T01:02:07;9.50;99.90
48264;DHT22;34086;51.076;13.722;2024-03-23T01:03:08;9.50;99.90
48264;DHT22;34086;51.076;13.722;2024-03-23T01:04:08;9.60;99.90
48264;DHT22;34086;51.076;13.722;2024-03-23T01:05:09;9.50;99.90
48264;DHT22;34086;51.076;13.722;2024-03-23T01:06:09;9.60;99.90
48264;DHT22;34086;51.076;13.722;2024-03-23T01:07:10;9.50;99.90
48264;DHT22;34086;51.076;13.722;2024-03-23T01:08:10;9.60;99.90
48264;DHT22;34086;51.076;13.722;2024-03-23T01:09:11;9.50;99.90
48264;DHT22;34086;51.076;13.722;2024-03-23T01:10:11;9.50;99.90
48264;DHT22;34086;51.076;13.722;2024-03-23T01:11:12;9.50;99.90
48264;DHT22;34086;51.076;13.722;2024-03-23T01:12:12;9.50;99.90
48264;DHT22;34086;51.076;13.722;2024-03-23T01:13:13;9.50;99.90
48264;DHT22;34086;51.076;13.722;2024-03-23T01:14:13;9.40;99.90
48264;DHT22;34086;51.076;13.722;2024-03-23T01:15:14;9.50;99.90
48264;DHT22;34086;51.076;13.722;2024-03-23T01:16:14;9.40;99.90
48264;DHT22;34086;51.076;13.722;2024-03-23T01:17:14;9.40;99.90
48264;DHT22;34086;51.076;13.722;2024-03-23T01:18:15;9.40;99.90
48264;DHT22;34086;51.076;13.722;2024-03-23T01:19:15;9.40;99.90
48264;DHT22;34086;51.076;13.722;2024-03-23T01:20:16;9.30;99.90
48264;DHT22;34086;51.076;13.722;2024-03-23T01:21:17;9.30;99.90
48264;DHT22;34086;51.076;13.722;2024-03-23T01:22:17;9.30;99.90
48264;DHT22;34086;51.076;13.722;2024-03-23T01:23:18;9.20;99.90
48264;DHT22;34086;51.076;13.722;2024-03-23T01:24:18;9.30;99.90
48264;DHT22;34086;51.076;13.722;2024-03-23T01:25:19;9.30;99.90
48264;DHT22;34086;51.076;13.722;2024-03-23T01:26:19;9.30;99.90
48264;DHT22;34086;51.076;13.722;2024-03-23T01:27:19;9.20;99.90
48264;DHT22;34086;51.076;13.722;2024-03-23T01:28:20;9.20;99.90
48264;DHT22;34086;51.076;13.722;2024-03-23T01:29:21;9.20;99.90
48264;DHT22;34086;51.076;13.722;2024-03-23T01:30:21;9.20;99.90
48264;DHT22;34086;51.076;13.722;2024-03-23T01:31:22;9.20;99.90
48264;DHT22;34086;51.076;13.722;2024-03-23T01:32:22;9.10;99.90
48264;DHT22;34086;51.076;13.722;2024-03-23T01:33:23;9.10;99.90
48264;DHT22;34086;51.076;13.722;2024-03-23T01:34:23;9.20;99.90
48264;DHT22;34086;51.076;13.722;2024-03-23T01:35:25;9.20;99.90
48264;DHT22;34086;51.076;13.722;2024-03-23T01:36:25;9.10;99.90
48264;DHT22;34086;51.076;13.722;2024-03-23T01:37:26;9.10;99.90
48264;DHT22;34086;51.076;13.722;2024-03-23T01:38:26;9.10;99.90
48264;DHT22;34086;51.076;13.722;2024-03-23T01:39:27;9.10;99.90
48264;DHT22;34086;51.076;13.722;2024-03-23T01:40:27;9.10;99.90
48264;DHT22;34086;51.076;13.722;2024-03-23T01:41:31;9.10;99.90
48264;DHT22;34086;51.076;13.722;2024-03-23T01:42:32;9.10;99.90
48264;DHT22;34086;51.076;13.722;2024-03-23T01:43:32;9.00;99.90
48264;DHT22;34086;51.076;13.722;2024-03-23T01:44:33;9.00;99.90
48264;DHT22;34086;51.076;13.722;2024-03-23T01:45:34;9.00;99.90
48264;DHT22;34086;51.076;13.722;2024-03-23T01:46:37;9.00;99.90
48264;DHT22;34086;51.076;13.722;2024-03-23T01:47:38;9.00;99.90
48264;DHT22;34086;51.076;13.722;2024-03-23T01:48:38;9.00;99.90
48264;DHT22;34086;51.076;13.722;2024-03-23T01:49:39;9.00;99.90
48264;DHT22;34086;51.076;13.722;2024-03-23T01:50:39;9.00;99.90
48264;DHT22;34086;51.076;13.722;2024-03-23T01:51:40;9.00;99.90
48264;DHT22;34086;51.076;13.722;2024-03-23T01:52:41;8.90;99.90
48264;DHT22;34086;51.076;13.722;2024-03-23T01:53:42;8.90;99.90
48264;DHT22;34086;51.076;13.722;2024-03-23T01:54:42;8.90;99.90
48264;DHT22;34086;51.076;13.722;2024-03-23T01:55:43;8.90;99.90
48264;DHT22;34086;51.076;13.722;2024-03-23T01:56:44;8.90;99.90
48264;DHT22;34086;51.076;13.722;2024-03-23T01:57:44;8.90;99.90
48264;DHT22;34086;51.076;13.722;2024-03-23T01:58:45;8.90;99.90
48264;DHT22;34086;51.076;13.722;2024-03-23T01:59:45;9.00;99.90
48264;DHT22;34086;51.076;13.722;2024-03-23T02:00:46;9.00;99.90
48264;DHT22;34086;51.076;13.722;2024-03-23T02:01:46;9.10;99.90
48264;DHT22;34086;51.076;13.722;2024-03-23T02:02:48;9.10;99.90
48264;DHT22;34086;51.076;13.722;2024-03-23T02:03:49;9.10;99.90
48264;DHT22;34086;51.076;13.722;2024-03-23T02:04:49;9.10;99.90
48264;DHT22;34086;51.076;13.722;2024-03-23T02:05:50;9.10;99.90
48264;DHT22;34086;51.076;13.722;2024-03-23T02:06:50;9.10;99.90
48264;DHT22;34086;51.076;13.722;2024-03-23T02:07:51;9.20;99.90
48264;DHT22;34086;51.076;13.722;2024-03-23T02:08:52;9.20;99.90
48264;DHT22;34086;51.076;13.722;2024-03-23T02:09:53;9.20;99.90
48264;DHT22;34086;51.076;13.722;2024-03-23T02:10:53;9.20;99.90
48264;DHT22;34086;51.076;13.722;2024-03-23T02:11:54;9.20;99.90
48264;DHT22;34086;51.076;13.722;2024-03-23T02:12:54;9.20;99.90
48264;DHT22;34086;51.076;13.722;2024-03-23T02:13:55;9.20;99.90
48264;DHT22;34086;51.076;13.722;2024-03-23T02:14:55;9.20;99.90
48264;DHT22;34086;51.076;13.722;2024-03-23T02:15:56;9.20;99.90
48264;DHT22;34086;51.076;13.722;2024-03-23T02:16:57;9.20;99.90
48264;DHT22;34086;51.076;13.722;2024-03-23T02:17:57;9.20;99.90
48264;DHT22;34086;51.076;13.722;2024-03-23T02:18:57;9.20;99.90
48264;DHT22;34086;51.076;13.722;2024-03-23T02:19:58;9.30;99.90
48264;DHT22;34086;51.076;13.722;2024-03-23T02:20:58;9.30;99.90
48264;DHT22;34086;51.076;13.722;2024-03-23T02:21:59;9.30;99.90
48264;DHT22;34086;51.076;13.722;2024-03-23T02:23:00;9.30;99.90
48264;DHT22;34086;51.076;13.722;2024-03-23T02:24:00;9.30;99.90
48264;DHT22;34086;51.076;13.722;2024-03-23T02:25:00;9.20;99.90
48264;DHT22;34086;51.076;13.722;2024-03-23T02:26:03;9.30;99.90
48264;DHT22;34086;51.076;13.722;2024-03-23T02:27:03;9.30;99.90
48264;DHT22;34086;51.076;13.722;2024-03-23T02:28:04;9.30;99.90
48264;DHT22;34086;51.076;13.722;2024-03-23T02:29:04;9.30;99.90
48264;DHT22;34086;51.076;13.722;2024-03-23T02:30:05;9.30;99.90
48264;DHT22;34086;51.076;13.722;2024-03-23T02:31:06;9.30;99.90
48264;DHT22;34086;51.076;13.722;2024-03-23T02:32:06;9.30;99.90
48264;DHT22;34086;51.076;13.722;2024-03-23T02:33:09;9.30;99.90
48264;DHT22;34086;51.076;13.722;2024-03-23T02:34:09;9.30;99.90
48264;DHT22;34086;51.076;13.722;2024-03-23T02:35:10;9.30;99.90
48264;DHT22;34086;51.076;13.722;2024-03-23T02:36:10;9.30;99.90
48264;DHT22;34086;51.076;13.722;2024-03-23T02:37:11;9.30;99.90
48264;DHT22;34086;51.076;13.722;2024-03-23T02:38:12;9.30;99.90
48264;DHT22;34086;51.076;13.722;2024-03-23T02:39:12;9.30;99.90
48264;DHT22;34086;51.076;13.722;2024-03-23T02:40:12;9.30;99.90
48264;DHT22;34086;51.076;13.722;2024-03-23T02:41:14;9.30;99.90
48264;DHT22;34086;51.076;13.722;2024-03-23T02:42:15;9.30;99.90
48264;DHT22;34086;51.076;13.722;2024-03-23T02:43:18;9.20;99.90
48264;DHT22;34086;51.076;13.722;2024-03-23T02:44:19;9.30;99.90
48264;DHT22;34086;51.076;13.722;2024-03-23T02:45:20;9.30;99.90
48264;DHT22;34086;51.076;13.722;2024-03-23T02:46:21;9.30;99.90
48264;DHT22;34086;51.076;13.722;2024-03-23T02:47:22;9.30;99.90
48264;DHT22;34086;51.076;13.722;2024-03-23T02:48:23;9.30;99.90
48264;DHT22;34086;51.076;13.722;2024-03-23T02:49:25;9.30;99.90
48264;DHT22;34086;51.076;13.722;2024-03-23T02:50:27;9.30;99.90
48264;DHT22;34086;51.076;13.722;2024-03-23T02:51:27;9.30;99.90
48264;DHT22;34086;51.076;13.722;2024-03-23T02:52:28;9.40;99.90
48264;DHT22;34086;51.076;13.722;2024-03-23T02:53:29;9.30;99.90
48264;DHT22;34086;51.076;13.722;2024-03-23T02:54:30;9.30;99.90
48264;DHT22;34086;51.076;13.722;2024-03-23T02:55:31;9.40;99.90
48264;DHT22;34086;51.076;13.722;2024-03-23T02:56:32;9.30;99.90
48264;DHT22;34086;51.076;13.722;2024-03-23T02:57:33;9.40;99.90
48264;DHT22;34086;51.076;13.722;2024-03-23T02:58:34;9.30;99.90
48264;DHT22;34086;51.076;13.722;2024-03-23T02:59:35;9.30;99.90
48264;DHT22;34086;51.076;13.722;2024-03-23T03:00:37;9.30;99.90
48264;DHT22;34086;51.076;13.722;2024-03-23T03:01:38;9.40;99.90
48264;DHT22;34086;51.076;13.722;2024-03-23T03:02:39;9.40;99.90
48264;DHT22;34086;51.076;13.722;2024-03-23T03:03:40;9.40;99.90
48264;DHT22;34086;51.076;13.722;2024-03-23T03:04:46;9.40;99.90
48264;DHT22;34086;51.076;13.722;2024-03-23T03:05:47;9.40;99.90
48264;DHT22;34086;51.076;13.722;2024-03-23T03:06:49;9.30;99.90
48264;DHT22;34086;51.076;13.722;2024-03-23T03:07:55;9.30;99.90
48264;DHT22;34086;51.076;13.722;2024-03-23T03:08:59;9.30;99.90
48264;DHT22;34086;51.076;13.722;2024-03-23T03:10:00;9.30;99.90
48264;DHT22;34086;51.076;13.722;2024-03-23T03:11:03;9.30;99.90
48264;DHT22;34086;51.076;13.722;2024-03-23T03:12:05;9.40;99.90
48264;DHT22;34086;51.076;13.722;2024-03-23T03:13:07;9.40;99.90
48264;DHT22;34086;51.076;13.722;2024-03-23T03:14:08;9.40;99.90
48264;DHT22;34086;51.076;13.722;2024-03-23T03:15:10;9.40;99.90
48264;DHT22;34086;51.076;13.722;2024-03-23T03:16:11;9.40;99.90
48264;DHT22;34086;51.076;13.722;2024-03-23T03:17:15;9.40;99.90
48264;DHT22;34086;51.076;13.722;2024-03-23T03:18:16;9.40;99.90
48264;DHT22;34086;51.076;13.722;2024-03-23T03:19:17;9.40;99.90
48264;DHT22;34086;51.076;13.722;2024-03-23T03:20:18;9.40;99.90
48264;DHT22;34086;51.076;13.722;2024-03-23T03:21:20;9.40;99.90
48264;DHT22;34086;51.076;13.722;2024-03-23T03:22:24;9.40;99.90
48264;DHT22;34086;51.076;13.722;2024-03-23T03:23:24;9.50;99.90
48264;DHT22;34086;51.076;13.722;2024-03-23T03:24:25;9.50;99.90
48264;DHT22;34086;51.076;13.722;2024-03-23T03:25:27;9.40;99.90
48264;DHT22;34086;51.076;13.722;2024-03-23T03:26:29;9.40;99.90
48264;DHT22;34086;51.076;13.722;2024-03-23T03:27:29;9.40;99.90
48264;DHT22;34086;51.076;13.722;2024-03-23T03:28:33;9.40;99.90
48264;DHT22;34086;51.076;13.722;2024-03-23T03:29:37;9.40;99.90
48264;DHT22;34086;51.076;13.722;2024-03-23T03:30:41;9.40;99.90
48264;DHT22;34086;51.076;13.722;2024-03-23T03:31:43;9.40;99.90
48264;DHT22;34086;51.076;13.722;2024-03-23T03:32:44;9.40;99.90
48264;DHT22;34086;51.076;13.722;2024-03-23T03:33:45;9.40;99.90
48264;DHT22;34086;51.076;13.722;2024-03-23T03:34:47;9.40;99.90
48264;DHT22;34086;51.076;13.722;2024-03-23T03:35:50;9.40;99.90
48264;DHT22;34086;51.076;13.722;2024-03-23T03:36:52;9.50;99.90
48264;DHT22;34086;51.076;13.722;2024-03-23T03:37:53;9.40;99.90
48264;DHT22;34086;51.076;13.722;2024-03-23T03:38:53;9.50;99.90
48264;DHT22;34086;51.076;13.722;2024-03-23T03:39:54;9.50;99.90
48264;DHT22;34086;51.076;13.722;2024-03-23T03:40:55;9.50;99.90
48264;DHT22;34086;51.076;13.722;2024-03-23T03:41:55;9.60;99.90
48264;DHT22;34086;51.076;13.722;2024-03-23T03:42:56;9.50;99.90
48264;DHT22;34086;51.076;13.722;2024-03-23T03:43:56;9.50;99.90
48264;DHT22;34086;51.076;13.722;2024-03-23T03:45:01;9.50;99.90
48264;DHT22;34086;51.076;13.722;2024-03-23T03:46:02;9.50;99.90
48264;DHT22;34086;51.076;13.722;2024-03-23T03:47:02;9.50;99.90
48264;DHT22;34086;51.076;13.722;2024-03-23T03:48:03;9.50;99.90
48264;DHT22;34086;51.076;13.722;2024-03-23T03:49:04;9.40;99.90
48264;DHT22;34086;51.076;13.722;2024-03-23T03:50:05;9.40;99.90
48264;DHT22;34086;51.076;13.722;2024-03-23T03:51:06;9.40;99.90
48264;DHT22;34086;51.076;13.722;2024-03-23T03:52:06;9.30;99.90
48264;DHT22;34086;51.076;13.722;2024-03-23T03:53:07;9.30;99.90
48264;DHT22;34086;51.076;13.722;2024-03-23T03:54:07;9.40;99.90
48264;DHT22;34086;51.076;13.722;2024-03-23T03:55:12;9.40;99.90
48264;DHT22;34086;51.076;13.722;2024-03-23T03:56:13;9.30;99.90
48264;DHT22;34086;51.076;13.722;2024-03-23T03:57:13;9.40;99.90
48264;DHT22;34086;51.076;13.722;2024-03-23T03:58:14;9.40;99.90
48264;DHT22;34086;51.076;13.722;2024-03-23T03:59:15;9.40;99.90
48264;DHT22;34086;51.076;13.722;2024-03-23T04:00:15;9.40;99.90
48264;DHT22;34086;51.076;13.722;2024-03-23T04:01:16;9.40;99.90
48264;DHT22;34086;51.076;13.722;2024-03-23T04:02:16;9.40;99.90
48264;DHT22;34086;51.076;13.722;2024-03-23T04:03:17;9.40;99.90
48264;DHT22;34086;51.076;13.722;2024-03-23T04:04:17;9.50;99.90
48264;DHT22;34086;51.076;13.722;2024-03-23T04:05:18;9.40;99.90
48264;DHT22;34086;51.076;13.722;2024-03-23T04:06:19;9.40;99.90
48264;DHT22;34086;51.076;13.722;2024-03-23T04:07:20;9.40;99.90
48264;DHT22;34086;51.076;13.722;2024-03-23T04:08:23;9.40;99.90
48264;DHT22;34086;51.076;13.722;2024-03-23T04:09:24;9.40;99.90
48264;DHT22;34086;51.076;13.722;2024-03-23T04:10:24;9.40;99.90
48264;DHT22;34086;51.076;13.722;2024-03-23T04:11:25;9.40;99.90
48264;DHT22;34086;51.076;13.722;2024-03-23T04:12:25;9.40;99.90
48264;DHT22;34086;51.076;13.722;2024-03-23T04:13:26;9.40;99.90
48264;DHT22;34086;51.076;13.722;2024-03-23T04:14:26;9.40;99.90
48264;DHT22;34086;51.076;13.722;2024-03-23T04:15:27;9.50;99.90
48264;DHT22;34086;51.076;13.722;2024-03-23T04:16:27;9.50;99.90
48264;DHT22;34086;51.076;13.722;2024-03-23T04:17:28;9.50;99.90
48264;DHT22;34086;51.076;13.722;2024-03-23T04:18:32;9.50;99.90
48264;DHT22;34086;51.076;13.722;2024-03-23T04:19:32;9.40;99.90
48264;DHT22;34086;51.076;13.722;2024-03-23T04:20:33;9.40;99.90
48264;DHT22;34086;51.076;13.722;2024-03-23T04:21:33;9.40;99.90
48264;DHT22;34086;51.076;13.722;2024-03-23T04:22:34;9.50;99.90
48264;DHT22;34086;51.076;13.722;2024-03-23T04:23:35;9.50;99.90
48264;DHT22;34086;51.076;13.722;2024-03-23T04:24:36;9.50;99.90
48264;DHT22;34086;51.076;13.722;2024-03-23T04:25:36;9.40;99.90
48264;DHT22;34086;51.076;13.722;2024-03-23T04:26:43;9.40;99.90
48264;DHT22;34086;51.076;13.722;2024-03-23T04:27:43;9.40;99.90
48264;DHT22;34086;51.076;13.722;2024-03-23T04:28:44;9.30;99.90
48264;DHT22;34086;51.076;13.722;2024-03-23T04:29:50;9.20;99.90
48264;DHT22;34086;51.076;13.722;2024-03-23T04:30:51;9.20;99.90
48264;DHT22;34086;51.076;13.722;2024-03-23T04:31:52;9.20;99.90
48264;DHT22;34086;51.076;13.722;2024-03-23T04:32:52;9.10;99.90
48264;DHT22;34086;51.076;13.722;2024-03-23T04:33:52;9.10;99.90
48264;DHT22;34086;51.076;13.722;2024-03-23T04:34:53;9.00;99.90
48264;DHT22;34086;51.076;13.722;2024-03-23T04:35:54;9.00;99.90
48264;DHT22;34086;51.076;13.722;2024-03-23T04:36:55;8.90;99.90
48264;DHT22;34086;51.076;13.722;2024-03-23T04:37:55;8.90;99.90
48264;DHT22;34086;51.076;13.722;2024-03-23T04:38:59;8.80;99.90
48264;DHT22;34086;51.076;13.722;2024-03-23T04:40:00;8.80;99.90
48264;DHT22;34086;51.076;13.722;2024-03-23T04:41:02;8.80;99.90
48264;DHT22;34086;51.076;13.722;2024-03-23T04:42:02;8.80;99.90
48264;DHT22;34086;51.076;13.722;2024-03-23T04:43:03;8.80;99.90
48264;DHT22;34086;51.076;13.722;2024-03-23T04:44:04;8.80;99.90
48264;DHT22;34086;51.076;13.722;2024-03-23T04:45:05;8.80;99.90
48264;DHT22;34086;51.076;13.722;2024-03-23T04:46:06;8.90;99.90
48264;DHT22;34086;51.076;13.722;2024-03-23T04:47:07;8.90;99.90
48264;DHT22;34086;51.076;13.722;2024-03-23T04:48:08;8.90;99.90
48264;DHT22;34086;51.076;13.722;2024-03-23T04:49:08;8.90;99.90
48264;DHT22;34086;51.076;13.722;2024-03-23T04:50:09;8.90;99.90
48264;DHT22;34086;51.076;13.722;2024-03-23T04:51:11;8.90;99.90
48264;DHT22;34086;51.076;13.722;2024-03-23T04:52:14;9.00;99.90
48264;DHT22;34086;51.076;13.722;2024-03-23T04:53:17;9.00;99.90
48264;DHT22;34086;51.076;13.722;2024-03-23T04:54:17;9.00;99.90
48264;DHT22;34086;51.076;13.722;2024-03-23T04:55:18;9.00;99.90
48264;DHT22;34086;51.076;13.722;2024-03-23T04:56:18;9.00;99.90
48264;DHT22;34086;51.076;13.722;2024-03-23T04:57:19;9.10;99.90
48264;DHT22;34086;51.076;13.722;2024-03-23T04:58:22;9.00;99.90
48264;DHT22;34086;51.076;13.722;2024-03-23T04:59:23;9.00;99.90
48264;DHT22;34086;51.076;13.722;2024-03-23T05:00:24;9.00;99.90
48264;DHT22;34086;51.076;13.722;2024-03-23T05:01:25;9.10;99.90
48264;DHT22;34086;51.076;13.722;2024-03-23T05:02:26;9.10;99.90
48264;DHT22;34086;51.076;13.722;2024-03-23T05:03:27;9.00;99.90
48264;DHT22;34086;51.076;13.722;2024-03-23T05:04:28;9.00;99.90
48264;DHT22;34086;51.076;13.722;2024-03-23T05:05:28;9.10;99.90
48264;DHT22;34086;51.076;13.722;2024-03-23T05:06:29;9.00;99.90
48264;DHT22;34086;51.076;13.722;2024-03-23T05:07:29;9.00;99.90
48264;DHT22;34086;51.076;13.722;2024-03-23T05:08:30;9.00;99.90
48264;DHT22;34086;51.076;13.722;2024-03-23T05:09:30;8.90;99.90
48264;DHT22;34086;51.076;13.722;2024-03-23T05:10:31;8.90;99.90
48264;DHT22;34086;51.076;13.722;2024-03-23T05:11:33;9.00;99.90
48264;DHT22;34086;51.076;13.722;2024-03-23T05:12:33;9.00;99.90
48264;DHT22;34086;51.076;13.722;2024-03-23T05:13:34;8.90;99.90
48264;DHT22;34086;51.076;13.722;2024-03-23T05:14:34;9.00;99.90
48264;DHT22;34086;51.076;13.722;2024-03-23T05:15:35;8.90;99.90
48264;DHT22;34086;51.076;13.722;2024-03-23T05:16:35;8.90;99.90
48264;DHT22;34086;51.076;13.722;2024-03-23T05:17:36;8.90;99.90
48264;DHT22;34086;51.076;13.722;2024-03-23T05:18:37;8.90;99.90
48264;DHT22;34086;51.076;13.722;2024-03-23T05:19:38;8.90;99.90
48264;DHT22;34086;51.076;13.722;2024-03-23T05:20:38;8.90;99.90
48264;DHT22;34086;51.076;13.722;2024-03-23T05:21:39;8.80;99.90
48264;DHT22;34086;51.076;13.722;2024-03-23T05:22:40;8.80;99.90
48264;DHT22;34086;51.076;13.722;2024-03-23T05:23:40;8.90;99.90
48264;DHT22;34086;51.076;13.722;2024-03-23T05:24:41;8.90;99.90
48264;DHT22;34086;51.076;13.722;2024-03-23T05:25:41;8.90;99.90
48264;DHT22;34086;51.076;13.722;2024-03-23T05:26:42;9.00;99.90
48264;DHT22;34086;51.076;13.722;2024-03-23T05:27:42;9.00;99.90
48264;DHT22;34086;51.076;13.722;2024-03-23T05:28:43;9.00;99.90
48264;DHT22;34086;51.076;13.722;2024-03-23T05:29:44;9.10;99.90
48264;DHT22;34086;51.076;13.722;2024-03-23T05:30:49;9.10;99.90
48264;DHT22;34086;51.076;13.722;2024-03-23T05:31:51;9.10;99.90
48264;DHT22;34086;51.076;13.722;2024-03-23T05:32:52;9.20;99.90
48264;DHT22;34086;51.076;13.722;2024-03-23T05:33:52;9.20;99.90
48264;DHT22;34086;51.076;13.722;2024-03-23T05:34:53;9.10;99.90
48264;DHT22;34086;51.076;13.722;2024-03-23T05:35:56;9.20;99.90
48264;DHT22;34086;51.076;13.722;2024-03-23T05:36:57;9.10;99.90
48264;DHT22;34086;51.076;13.722;2024-03-23T05:37:57;9.10;99.90
48264;DHT22;34086;51.076;13.722;2024-03-23T05:38:58;9.20;99.90
48264;DHT22;34086;51.076;13.722;2024-03-23T05:39:59;9.10;99.90
48264;DHT22;34086;51.076;13.722;2024-03-23T05:41:00;9.10;99.90
48264;DHT22;34086;51.076;13.722;2024-03-23T05:42:00;9.20;99.90
48264;DHT22;34086;51.076;13.722;2024-03-23T05:43:01;9.20;99.90
48264;DHT22;34086;51.076;13.722;2024-03-23T05:44:02;9.20;99.90
48264;DHT22;34086;51.076;13.722;2024-03-23T05:45:03;9.20;99.90
48264;DHT22;34086;51.076;13.722;2024-03-23T05:46:06;9.20;99.90
48264;DHT22;34086;51.076;13.722;2024-03-23T05:47:08;9.10;99.90
48264;DHT22;34086;51.076;13.722;2024-03-23T05:48:08;9.20;99.90
48264;DHT22;34086;51.076;13.722;2024-03-23T05:49:09;9.20;99.90
48264;DHT22;34086;51.076;13.722;2024-03-23T05:50:09;9.20;99.90
48264;DHT22;34086;51.076;13.722;2024-03-23T05:51:12;9.20;99.90
48264;DHT22;34086;51.076;13.722;2024-03-23T05:52:13;9.20;99.90
48264;DHT22;34086;51.076;13.722;2024-03-23T05:53:14;9.20;99.90
48264;DHT22;34086;51.076;13.722;2024-03-23T05:54:15;9.20;99.90
48264;DHT22;34086;51.076;13.722;2024-03-23T05:55:15;9.30;99.90
48264;DHT22;34086;51.076;13.722;2024-03-23T05:56:19;9.30;99.90
48264;DHT22;34086;51.076;13.722;2024-03-23T05:57:19;9.30;99.90
48264;DHT22;34086;51.076;13.722;2024-03-23T05:58:20;9.30;99.90
48264;DHT22;34086;51.076;13.722;2024-03-23T05:59:21;9.30;99.90
48264;DHT22;34086;51.076;13.722;2024-03-23T06:00:21;9.20;99.90
48264;DHT22;34086;51.076;13.722;2024-03-23T06:01:21;9.30;99.90
48264;DHT22;34086;51.076;13.722;2024-03-23T06:02:22;9.20;99.90
48264;DHT22;34086;51.076;13.722;2024-03-23T06:03:23;9.30;99.90
48264;DHT22;34086;51.076;13.722;2024-03-23T06:04:23;9.20;99.90
48264;DHT22;34086;51.076;13.722;2024-03-23T06:05:24;9.20;99.90
48264;DHT22;34086;51.076;13.722;2024-03-23T06:06:24;9.30;99.90
48264;DHT22;34086;51.076;13.722;2024-03-23T06:07:25;9.30;99.90
48264;DHT22;34086;51.076;13.722;2024-03-23T06:08:25;9.30;99.90
48264;DHT22;34086;51.076;13.722;2024-03-23T06:09:26;9.20;99.90
48264;DHT22;34086;51.076;13.722;2024-03-23T06:10:26;9.30;99.90
48264;DHT22;34086;51.076;13.722;2024-03-23T06:11:26;9.30;99.90
48264;DHT22;34086;51.076;13.722;2024-03-23T06:12:27;9.30;99.90
48264;DHT22;34086;51.076;13.722;2024-03-23T06:13:27;9.20;99.90
48264;DHT22;34086;51.076;13.722;2024-03-23T06:14:30;9.20;99.90
48264;DHT22;34086;51.076;13.722;2024-03-23T06:15:30;9.20;99.90
48264;DHT22;34086;51.076;13.722;2024-03-23T06:16:32;9.20;99.90
48264;DHT22;34086;51.076;13.722;2024-03-23T06:17:32;9.20;99.90
48264;DHT22;34086;51.076;13.722;2024-03-23T06:18:33;9.10;99.90
48264;DHT22;34086;51.076;13.722;2024-03-23T06:19:34;9.20;99.90
48264;DHT22;34086;51.076;13.722;2024-03-23T06:20:34;9.10;99.90
48264;DHT22;34086;51.076;13.722;2024-03-23T06:21:35;9.10;99.90
48264;DHT22;34086;51.076;13.722;2024-03-23T06:22:35;9.10;99.90
48264;DHT22;34086;51.076;13.722;2024-03-23T06:23:36;9.10;99.90
48264;DHT22;34086;51.076;13.722;2024-03-23T06:24:37;9.10;99.90
48264;DHT22;34086;51.076;13.722;2024-03-23T06:25:37;9.20;99.90
48264;DHT22;34086;51.076;13.722;2024-03-23T06:26:38;9.20;99.90
48264;DHT22;34086;51.076;13.722;2024-03-23T06:27:39;9.20;99.90
48264;DHT22;34086;51.076;13.722;2024-03-23T06:28:39;9.20;99.90
48264;DHT22;34086;51.076;13.722;2024-03-23T06:29:40;9.30;99.90
48264;DHT22;34086;51.076;13.722;2024-03-23T06:30:40;9.30;99.90
48264;DHT22;34086;51.076;13.722;2024-03-23T06:31:40;9.30;99.90
48264;DHT22;34086;51.076;13.722;2024-03-23T06:32:41;9.20;99.90
48264;DHT22;34086;51.076;13.722;2024-03-23T06:33:42;9.20;99.90
48264;DHT22;34086;51.076;13.722;2024-03-23T06:34:42;9.20;99.90
48264;DHT22;34086;51.076;13.722;2024-03-23T06:35:43;9.20;99.90
48264;DHT22;34086;51.076;13.722;2024-03-23T06:36:43;9.20;99.90
48264;DHT22;34086;51.076;13.722;2024-03-23T06:37:44;9.20;99.90
48264;DHT22;34086;51.076;13.722;2024-03-23T06:38:45;9.10;99.90
48264;DHT22;34086;51.076;13.722;2024-03-23T06:39:46;9.10;99.90
48264;DHT22;34086;51.076;13.722;2024-03-23T06:40:46;9.10;99.90
48264;DHT22;34086;51.076;13.722;2024-03-23T06:41:52;9.10;99.90
48264;DHT22;34086;51.076;13.722;2024-03-23T06:42:53;9.10;99.90
48264;DHT22;34086;51.076;13.722;2024-03-23T06:43:53;9.10;99.90
48264;DHT22;34086;51.076;13.722;2024-03-23T06:44:54;9.10;99.90
48264;DHT22;34086;51.076;13.722;2024-03-23T06:45:54;9.00;99.90
48264;DHT22;34086;51.076;13.722;2024-03-23T06:46:55;9.00;99.90
48264;DHT22;34086;51.076;13.722;2024-03-23T06:47:56;9.00;99.90
48264;DHT22;34086;51.076;13.722;2024-03-23T06:48:57;9.00;99.90
48264;DHT22;34086;51.076;13.722;2024-03-23T06:49:59;9.00;99.90
48264;DHT22;34086;51.076;13.722;2024-03-23T06:51:02;9.00;99.90
48264;DHT22;34086;51.076;13.722;2024-03-23T06:52:02;9.00;99.90
48264;DHT22;34086;51.076;13.722;2024-03-23T06:53:03;9.00;99.90
48264;DHT22;34086;51.076;13.722;2024-03-23T06:54:05;9.10;99.90
48264;DHT22;34086;51.076;13.722;2024-03-23T06:55:06;9.10;99.90
48264;DHT22;34086;51.076;13.722;2024-03-23T06:56:07;9.10;99.90
48264;DHT22;34086;51.076;13.722;2024-03-23T06:57:07;9.10;99.90
48264;DHT22;34086;51.076;13.722;2024-03-23T06:58:08;9.10;99.90
48264;DHT22;34086;51.076;13.722;2024-03-23T06:59:08;9.10;99.90
48264;DHT22;34086;51.076;13.722;2024-03-23T07:00:09;9.10;99.90
48264;DHT22;34086;51.076;13.722;2024-03-23T07:01:10;9.10;99.90
48264;DHT22;34086;51.076;13.722;2024-03-23T07:02:11;9.00;99.90
48264;DHT22;34086;51.076;13.722;2024-03-23T07:03:12;9.00;99.90
48264;DHT22;34086;51.076;13.722;2024-03-23T07:04:12;9.00;99.90
48264;DHT22;34086;51.076;13.722;2024-03-23T07:05:13;9.00;99.90
48264;DHT22;34086;51.076;13.722;2024-03-23T07:06:13;8.90;99.90
48264;DHT22;34086;51.076;13.722;2024-03-23T07:07:14;8.90;99.90
48264;DHT22;34086;51.076;13.722;2024-03-23T07:08:14;8.90;99.90
48264;DHT22;34086;51.076;13.722;2024-03-23T07:09:21;8.90;99.90
48264;DHT22;34086;51.076;13.722;2024-03-23T07:10:25;8.90;99.90
48264;DHT22;34086;51.076;13.722;2024-03-23T07:11:25;8.90;99.90
48264;DHT22;34086;51.076;13.722;2024-03-23T07:12:26;8.90;99.90
48264;DHT22;34086;51.076;13.722;2024-03-23T07:13:27;8.90;99.90
48264;DHT22;34086;51.076;13.722;2024-03-23T07:14:27;8.80;99.90
48264;DHT22;34086;51.076;13.722;2024-03-23T07:15:28;8.80;99.90
48264;DHT22;34086;51.076;13.722;2024-03-23T07:16:28;8.80;99.90
48264;DHT22;34086;51.076;13.722;2024-03-23T07:17:29;8.80;99.90